Time;durP1;ratioP1;P1;durP2;ratioP2;P2;SDS_P1;SDS_P2;PMS_P1;PMS_P2;Temp;Humidity;BMP_temperature;BMP_pressure;BME280_temperature;BME280_humidity;BME280_pressure;Samples;Min_cycle;Max_cycle;Signal;HPM_P1;HPM_P2
2022/07/31 00:06:02;;;;;;;14.5;19.6;;;;;;;16.6;100;97950;;;;
2022/07/31 00:17:01;;;;;;;14.5;19.6;;;;;;;16.7;100;97940;;;;
2022/07/31 00:27:02;;;;;;;13;19.7;;;;;;;16.7;100;97940;;;;
2022/07/31 00:38:02;;;;;;;13;19.7;;;;;;;16.5;100;97930;;;;
2022/07/31 00:49:02;;;;;;;13;19.7;;;;;;;16.5;100;97940;;;;
2022/07/31 01:00:01;;;;;;;11.6;16.8;;;;;;;16.5;100;97940;;;;
2022/07/31 01:10:03;;;;;;;11.6;16.8;;;;;;;16.6;100;97940;;;;
2022/07/31 01:20:01;;;;;;;11.6;16.8;;;;;;;16.6;100;97950;;;;
2022/07/31 01:31:02;;;;;;;6.7;9.7;;;;;;;16.6;100;97930;;;;
2022/07/31 01:41:02;;;;;;;6.7;9.7;;;;;;;16.8;100;97930;;;;
2022/07/31 01:51:01;;;;;;;6.7;9.7;;;;;;;16.8;100;97920;;;;
2022/07/31 02:01:02;;;;;;;4.6;11.7;;;;;;;16.6;100;97910;;;;
2022/07/31 02:12:01;;;;;;;4.6;11.7;;;;;;;16.6;100;97890;;;;
2022/07/31 02:23:01;;;;;;;1.8;4;;;;;;;16.6;100;97890;;;;
2022/07/31 02:34:01;;;;;;;1.8;4;;;;;;;16.5;100;97890;;;;
2022/07/31 02:44:01;;;;;;;1.8;4;;;;;;;16.6;100;97880;;;;
2022/07/31 02:55:01;;;;;;;1.2;4;;;;;;;16.3;100;97880;;;;
2022/07/31 03:06:01;;;;;;;1.2;4;;;;;;;16.5;100;97880;;;;
2022/07/31 03:16:01;;;;;;;1.2;4;;;;;;;16.5;100;97870;;;;
2022/07/31 03:27:01;;;;;;;1.2;3.1;;;;;;;16.4;100;97870;;;;
2022/07/31 03:37:01;;;;;;;1.2;3.1;;;;;;;16.5;100;97860;;;;
2022/07/31 03:47:02;;;;;;;1.2;3.1;;;;;;;16.6;100;97860;;;;
2022/07/31 03:58:01;;;;;;;1.1;2.8;;;;;;;16.5;100;97860;;;;
2022/07/31 04:08:01;;;;;;;1.1;2.8;;;;;;;16.5;100;97870;;;;
2022/07/31 04:19:02;;;;;;;1.1;2.8;;;;;;;16.4;100;97880;;;;
2022/07/31 04:30:01;;;;;;;1.8;3.7;;;;;;;16.4;100;97890;;;;
2022/07/31 04:40:01;;;;;;;1.8;3.7;;;;;;;16.4;100;97900;;;;
2022/07/31 04:51:01;;;;;;;1.8;3.7;;;;;;;16.3;100;97920;;;;
2022/07/31 05:01:01;;;;;;;1.2;2.8;;;;;;;16.2;100;97930;;;;
2022/07/31 05:11:21;;;;;;;1.2;2.8;;;;;;;16.2;100;97940;;;;
2022/07/31 05:21:01;;;;;;;1.2;2.8;;;;;;;16.1;100;97950;;;;
2022/07/31 05:31:01;;;;;;;0.6;1.4;;;;;;;16;100;97960;;;;
2022/07/31 05:42:01;;;;;;;0.6;1.4;;;;;;;15.9;100;97960;;;;
2022/07/31 05:52:01;;;;;;;0.7;1.7;;;;;;;16;100;97970;;;;
2022/07/31 06:02:01;;;;;;;0.7;1.7;;;;;;;15.8;100;97980;;;;
2022/07/31 06:13:01;;;;;;;0.7;1.7;;;;;;;15.8;100;97970;;;;
2022/07/31 06:23:01;;;;;;;0.9;1.9;;;;;;;15.8;100;97970;;;;
2022/07/31 06:34:01;;;;;;;0.9;1.9;;;;;;;15.8;100;97980;;;;
2022/07/31 06:45:01;;;;;;;0.9;1.9;;;;;;;16;100;97980;;;;
2022/07/31 06:55:02;;;;;;;1;2;;;;;;;15.9;100;98000;;;;
2022/07/31 07:06:02;;;;;;;1;2;;;;;;;15.8;100;97990;;;;
2022/07/31 07:17:02;;;;;;;1;2;;;;;;;15.6;100;98010;;;;
2022/07/31 07:27:01;;;;;;;1.3;2.9;;;;;;;15.4;100;98020;;;;
2022/07/31 07:37:01;;;;;;;1.3;2.9;;;;;;;15.4;100;98020;;;;
2022/07/31 07:47:01;;;;;;;1.3;2.9;;;;;;;15.4;100;98030;;;;
2022/07/31 07:57:01;;;;;;;2.1;3.5;;;;;;;15.3;100;98030;;;;
2022/07/31 08:08:01;;;;;;;2.1;3.5;;;;;;;15.4;100;98050;;;;
2022/07/31 08:18:01;;;;;;;2.1;3.5;;;;;;;15.6;100;98060;;;;
2022/07/31 08:28:01;;;;;;;2.1;3.7;;;;;;;15.4;100;98070;;;;
2022/07/31 08:39:02;;;;;;;2.1;3.7;;;;;;;15.5;100;98080;;;;
2022/07/31 08:49:02;;;;;;;2.1;3.7;;;;;;;15.3;100;98080;;;;
2022/07/31 08:59:01;;;;;;;1.7;3.1;;;;;;;15.3;100;98080;;;;
2022/07/31 09:09:01;;;;;;;1.7;3.1;;;;;;;15.4;100;98090;;;;
2022/07/31 09:20:01;;;;;;;1.7;3.1;;;;;;;15.5;100;98090;;;;
2022/07/31 09:30:01;;;;;;;2.2;4.1;;;;;;;15.5;100;98090;;;;
2022/07/31 09:41:01;;;;;;;2.2;4.1;;;;;;;15.4;100;98100;;;;
2022/07/31 09:51:01;;;;;;;2.2;4.1;;;;;;;15.3;100;98100;;;;
2022/07/31 10:01:01;;;;;;;2.3;5.1;;;;;;;15.3;100;98110;;;;
2022/07/31 10:12:01;;;;;;;2.3;5.1;;;;;;;15.6;100;98120;;;;
2022/07/31 10:23:01;;;;;;;2.4;4.1;;;;;;;15.9;100;98130;;;;
2022/07/31 10:33:01;;;;;;;2.4;4.1;;;;;;;16.1;100;98130;;;;
2022/07/31 10:43:01;;;;;;;2.4;4.1;;;;;;;16.4;100;98140;;;;
2022/07/31 10:54:01;;;;;;;2.7;4.3;;;;;;;16.3;100;98140;;;;
2022/07/31 11:04:02;;;;;;;2.7;4.3;;;;;;;16.3;100;98150;;;;
2022/07/31 11:15:01;;;;;;;2.7;4.3;;;;;;;16.1;100;98160;;;;
2022/07/31 11:25:01;;;;;;;2;4.4;;;;;;;16.6;100;98160;;;;
2022/07/31 11:36:03;;;;;;;2;4.4;;;;;;;16.4;100;98160;;;;
2022/07/31 11:46:01;;;;;;;2;4.4;;;;;;;16.2;100;98160;;;;
2022/07/31 11:56:02;;;;;;;1.1;2.8;;;;;;;16.4;100;98170;;;;
2022/07/31 12:07:01;;;;;;;1.1;2.8;;;;;;;16.3;100;98170;;;;
2022/07/31 12:17:01;;;;;;;1.1;2.8;;;;;;;16.4;100;98180;;;;
2022/07/31 12:27:01;;;;;;;0.9;1.6;;;;;;;16.5;100;98180;;;;
2022/07/31 12:37:01;;;;;;;0.9;1.6;;;;;;;16.8;100;98180;;;;
2022/07/31 12:48:01;;;;;;;0.9;1.6;;;;;;;16.5;100;98190;;;;
2022/07/31 12:58:01;;;;;;;1.3;2.8;;;;;;;16.5;100;98180;;;;
2022/07/31 13:08:01;;;;;;;1.3;2.8;;;;;;;16.2;100;98180;;;;
2022/07/31 13:18:02;;;;;;;1.3;2.8;;;;;;;16.3;100;98180;;;;
2022/07/31 13:29:01;;;;;;;0.9;2.6;;;;;;;16.3;100;98180;;;;
2022/07/31 13:39:01;;;;;;;0.9;2.6;;;;;;;15.8;100;98190;;;;
2022/07/31 13:50:01;;;;;;;0.9;2.6;;;;;;;15.9;100;98190;;;;
2022/07/31 14:00:01;;;;;;;0.7;1.6;;;;;;;15.9;100;98190;;;;
2022/07/31 14:11:01;;;;;;;0.7;1.6;;;;;;;15.9;100;98200;;;;
2022/07/31 14:21:01;;;;;;;0.7;1.6;;;;;;;15.7;100;98190;;;;
2022/07/31 14:31:01;;;;;;;3.1;7;;;;;;;15.7;100;98200;;;;
2022/07/31 14:41:01;;;;;;;3.1;7;;;;;;;15.8;100;98210;;;;
2022/07/31 14:52:01;;;;;;;4.9;7.5;;;;;;;15.9;100;98210;;;;
2022/07/31 15:02:01;;;;;;;4.9;7.5;;;;;;;15.8;100;98220;;;;
2022/07/31 15:12:01;;;;;;;4.9;7.5;;;;;;;15.8;100;98230;;;;
2022/07/31 15:23:01;;;;;;;4.9;10.3;;;;;;;15.8;100;98230;;;;
2022/07/31 15:33:01;;;;;;;4.9;10.3;;;;;;;15.8;100;98240;;;;
2022/07/31 15:44:01;;;;;;;4.9;10.3;;;;;;;16;100;98240;;;;
2022/07/31 15:54:01;;;;;;;3.5;5.4;;;;;;;15.9;100;98240;;;;
2022/07/31 16:05:01;;;;;;;3.5;5.4;;;;;;;16;100;98240;;;;
2022/07/31 16:15:01;;;;;;;3.5;5.4;;;;;;;16;100;98240;;;;
2022/07/31 16:25:01;;;;;;;3.3;5.6;;;;;;;16;100;98240;;;;
2022/07/31 16:36:01;;;;;;;3.3;5.6;;;;;;;15.9;100;98240;;;;
2022/07/31 16:47:01;;;;;;;3.3;5.6;;;;;;;15.9;100;98250;;;;
2022/07/31 16:57:01;;;;;;;3.4;5.5;;;;;;;15.9;100;98250;;;;
2022/07/31 17:08:01;;;;;;;3.4;5.5;;;;;;;15.7;100;98260;;;;
2022/07/31 17:18:01;;;;;;;3.4;5.5;;;;;;;15.8;100;98270;;;;
2022/07/31 17:28:01;;;;;;;2.8;4.8;;;;;;;15.6;100;98260;;;;
2022/07/31 17:38:01;;;;;;;2.8;4.8;;;;;;;15.7;100;98270;;;;
2022/07/31 17:49:01;;;;;;;2.8;4.8;;;;;;;15.9;100;98280;;;;
2022/07/31 18:00:01;;;;;;;3.3;5.7;;;;;;;16;100;98280;;;;
2022/07/31 18:11:01;;;;;;;3.3;5.7;;;;;;;16.1;100;98280;;;;
2022/07/31 18:21:01;;;;;;;3.3;5.7;;;;;;;16.2;100;98280;;;;
2022/07/31 18:31:01;;;;;;;6.1;9.5;;;;;;;16.3;100;98290;;;;
2022/07/31 18:41:01;;;;;;;6.1;9.5;;;;;;;16.1;100;98280;;;;
2022/07/31 18:52:01;;;;;;;5.9;8.5;;;;;;;16.2;100;98290;;;;
2022/07/31 19:03:01;;;;;;;5.9;8.5;;;;;;;16.2;100;98290;;;;
2022/07/31 19:14:01;;;;;;;5.9;8.5;;;;;;;16.2;100;98310;;;;
2022/07/31 19:25:01;;;;;;;6;9.3;;;;;;;16.3;100;98310;;;;
2022/07/31 19:35:01;;;;;;;6;9.3;;;;;;;16.3;100;98320;;;;
2022/07/31 19:45:01;;;;;;;6;9.3;;;;;;;16.4;100;98320;;;;
2022/07/31 19:55:01;;;;;;;5.1;9.7;;;;;;;16.5;100;98310;;;;
2022/07/31 20:05:01;;;;;;;5.1;9.7;;;;;;;16.5;100;98320;;;;
2022/07/31 20:16:01;;;;;;;5.1;9.7;;;;;;;16.5;100;98320;;;;
2022/07/31 20:27:01;;;;;;;4.5;7.1;;;;;;;16.6;100;98320;;;;
2022/07/31 20:38:01;;;;;;;4.5;7.1;;;;;;;16.6;100;98320;;;;
2022/07/31 20:48:01;;;;;;;4.5;7.1;;;;;;;16.6;100;98330;;;;
2022/07/31 20:58:01;;;;;;;5.7;10.5;;;;;;;16.6;100;98330;;;;
2022/07/31 21:08:00;;;;;;;5.7;10.5;;;;;;;16.6;100;98320;;;;
2022/07/31 21:19:01;;;;;;;5.7;10.5;;;;;;;16.5;100;98320;;;;
2022/07/31 21:30:01;;;;;;;5.7;9.7;;;;;;;16.5;100;98320;;;;
2022/07/31 21:40:01;;;;;;;5.7;9.7;;;;;;;16.5;100;98330;;;;
2022/07/31 21:51:02;;;;;;;5.7;9.7;;;;;;;16.5;100;98330;;;;
2022/07/31 22:01:00;;;;;;;4.6;9.1;;;;;;;16.3;100;98330;;;;
2022/07/31 22:12:00;;;;;;;4.6;9.1;;;;;;;16.4;100;98330;;;;
2022/07/31 22:22:01;;;;;;;4.7;8.1;;;;;;;16.3;100;98330;;;;
2022/07/31 22:32:01;;;;;;;4.7;8.1;;;;;;;16.4;100;98330;;;;
2022/07/31 22:42:00;;;;;;;4.7;8.1;;;;;;;16.3;100;98340;;;;
2022/07/31 22:53:00;;;;;;;5.3;7.4;;;;;;;16.4;100;98360;;;;
2022/07/31 23:04:01;;;;;;;5.3;7.4;;;;;;;16.4;100;98350;;;;
2022/07/31 23:14:01;;;;;;;5.3;7.4;;;;;;;16.3;100;98340;;;;
2022/07/31 23:25:01;;;;;;;7.1;9.5;;;;;;;16.2;100;98340;;;;
2022/07/31 23:36:01;;;;;;;7.1;9.5;;;;;;;16;100;98330;;;;
2022/07/31 23:47:01;;;;;;;7.1;9.5;;;;;;;16;100;98340;;;;
2022/07/31 23:58:01;;;;;;;7.3;10.8;;;;;;;16;100;98340;;;;
